createdAt,value
2022-11-12T00:00:01.525Z,12.13
2022-11-12T00:04:57.985Z,12.23
2022-11-12T00:09:54.491Z,12.11
2022-11-12T00:14:55.392Z,12.18
2022-11-12T00:19:52.081Z,12.19
2022-11-12T00:24:48.511Z,12.30
2022-11-12T00:29:52.832Z,12.28
2022-11-12T00:35:00.294Z,12.31
2022-11-12T00:40:08.018Z,12.28
2022-11-12T00:45:05.010Z,12.25
2022-11-12T00:50:12.254Z,12.17
2022-11-12T00:55:11.128Z,12.16
2022-11-12T01:00:08.184Z,12.11
2022-11-12T01:05:16.581Z,12.26
2022-11-12T01:10:16.638Z,12.12
2022-11-12T01:15:13.275Z,12.25
2022-11-12T01:20:21.095Z,12.23
2022-11-12T01:25:23.948Z,12.12
2022-11-12T01:30:26.967Z,12.40
2022-11-12T01:35:31.072Z,12.45
2022-11-12T01:40:32.953Z,12.27
2022-11-12T01:45:34.828Z,12.40
2022-11-12T01:50:41.006Z,12.32
2022-11-12T01:55:47.879Z,12.33
2022-11-12T02:00:52.110Z,12.28
2022-11-12T02:05:56.128Z,12.39
2022-11-12T02:10:53.980Z,12.32
2022-11-12T02:16:03.424Z,12.30
2022-11-12T02:21:36.438Z,12.47
2022-11-12T02:26:39.548Z,12.38
2022-11-12T02:31:39.125Z,12.33
2022-11-12T02:36:35.574Z,12.38
2022-11-12T02:41:39.967Z,12.18
2022-11-12T02:46:36.450Z,12.10
2022-11-12T02:51:32.887Z,11.97
2022-11-12T02:56:29.357Z,11.88
2022-11-12T03:01:25.877Z,11.76
2022-11-12T03:06:22.428Z,11.71
2022-11-12T03:11:19.172Z,11.64
2022-11-12T03:16:15.454Z,11.56
2022-11-12T03:21:12.949Z,11.44
2022-11-12T03:26:09.632Z,11.36
2022-11-12T03:31:06.190Z,11.25
2022-11-12T03:36:03.068Z,11.15
2022-11-12T03:40:59.363Z,11.08
2022-11-12T03:45:55.815Z,10.94
2022-11-12T03:50:52.292Z,10.82
2022-11-12T03:55:57.656Z,10.81
2022-11-12T04:00:54.257Z,10.68
2022-11-12T04:06:09.674Z,10.45
2022-11-12T04:11:15.247Z,10.58
2022-11-12T04:16:34.983Z,10.51
2022-11-12T04:21:53.363Z,10.43
2022-11-12T04:26:53.655Z,10.32
2022-11-12T04:31:50.088Z,10.25
2022-11-12T04:36:46.537Z,10.21
2022-11-12T04:42:01.212Z,10.19
2022-11-12T04:46:57.674Z,10.14
2022-11-12T04:52:06.957Z,10.06
2022-11-12T04:57:03.416Z,10.02
2022-11-12T05:01:59.920Z,9.99
2022-11-12T05:06:57.084Z,9.93
2022-11-12T05:11:57.361Z,9.85
2022-11-12T05:16:53.784Z,9.79
2022-11-12T05:22:05.165Z,9.73
2022-11-12T05:27:02.260Z,9.65
2022-11-12T05:31:58.698Z,9.62
2022-11-12T05:36:55.176Z,9.53
2022-11-12T05:42:11.813Z,9.55
2022-11-12T05:47:09.252Z,9.46
2022-11-12T05:52:05.692Z,9.42
2022-11-12T05:57:02.133Z,9.41
2022-11-12T06:01:58.907Z,9.37
2022-11-12T06:06:55.417Z,9.29
2022-11-12T06:11:51.970Z,9.23
2022-11-12T06:16:48.539Z,9.20
2022-11-12T06:21:51.934Z,9.14
2022-11-12T06:26:49.800Z,9.11
2022-11-12T06:31:52.252Z,9.06
2022-11-12T06:36:49.171Z,8.99
2022-11-12T06:41:45.537Z,9.00
2022-11-12T06:46:42.024Z,8.92
2022-11-12T06:51:39.806Z,8.90
2022-11-12T06:56:36.287Z,8.88
2022-11-12T07:01:32.824Z,8.81
2022-11-12T07:06:29.307Z,8.75
2022-11-12T07:11:25.762Z,8.72
2022-11-12T07:16:22.415Z,8.70
2022-11-12T15:33:58.453Z,11.45
